Terminal Aerodrome Forecast
Issued by NWS

Home | Current Version | Previous Version | Text Only | Print | Product List | Glossary On
Versions: 1 2 3 4 5 6 7 8 9 10 11 12 13 14 15
000
FTUS42 KTAE 300230 AAA
TAFABY
TAF AMD
KABY 300230Z 3003/3024 VRB10KT P6SM VCTS BKN050CB
     FM300400 00000KT P6SM SCT120 BKN250
     FM301400 32005KT P6SM SCT050
     FM301800 20010KT P6SM VCTS SCT050CB=

USA.gov is the U.S. government's official web portal to all federal, state and local government web resources and services.